sensor_id;sensor_type;location;lat;lon;timestamp;P1;durP1;ratioP1;P2;durP2;ratioP2
15356;SDS011;7778;48.792;9.260;2023-08-06T00:02:32;6.95;;;5.30;;
15356;SDS011;7778;48.792;9.260;2023-08-06T00:05:17;8.38;;;5.32;;
15356;SDS011;7778;48.792;9.260;2023-08-06T00:08:04;7.38;;;4.90;;
15356;SDS011;7778;48.792;9.260;2023-08-06T00:10:50;6.78;;;4.78;;
15356;SDS011;7778;48.792;9.260;2023-08-06T00:13:37;6.85;;;4.47;;
15356;SDS011;7778;48.792;9.260;2023-08-06T00:16:23;7.70;;;5.10;;
15356;SDS011;7778;48.792;9.260;2023-08-06T00:19:08;6.53;;;4.65;;
15356;SDS011;7778;48.792;9.260;2023-08-06T00:21:54;9.00;;;5.10;;
15356;SDS011;7778;48.792;9.260;2023-08-06T00:24:39;10.45;;;5.05;;
15356;SDS011;7778;48.792;9.260;2023-08-06T00:27:25;6.50;;;4.60;;
15356;SDS011;7778;48.792;9.260;2023-08-06T00:30:12;8.50;;;4.88;;
15356;SDS011;7778;48.792;9.260;2023-08-06T00:32:58;7.82;;;5.00;;
15356;SDS011;7778;48.792;9.260;2023-08-06T00:35:43;6.90;;;5.18;;
15356;SDS011;7778;48.792;9.260;2023-08-06T00:38:36;6.38;;;5.03;;
15356;SDS011;7778;48.792;9.260;2023-08-06T00:41:22;8.82;;;5.80;;
15356;SDS011;7778;48.792;9.260;2023-08-06T00:44:08;8.98;;;6.28;;
15356;SDS011;7778;48.792;9.260;2023-08-06T00:46:55;9.63;;;6.07;;
15356;SDS011;7778;48.792;9.260;2023-08-06T00:49:41;9.90;;;6.28;;
15356;SDS011;7778;48.792;9.260;2023-08-06T00:52:26;8.45;;;6.38;;
15356;SDS011;7778;48.792;9.260;2023-08-06T00:55:12;10.05;;;6.97;;
15356;SDS011;7778;48.792;9.260;2023-08-06T00:57:58;10.75;;;6.78;;
15356;SDS011;7778;48.792;9.260;2023-08-06T01:00:43;8.50;;;7.07;;
15356;SDS011;7778;48.792;9.260;2023-08-06T01:03:30;12.27;;;6.88;;
15356;SDS011;7778;48.792;9.260;2023-08-06T01:06:16;9.82;;;5.28;;
15356;SDS011;7778;48.792;9.260;2023-08-06T01:09:11;8.93;;;5.63;;
15356;SDS011;7778;48.792;9.260;2023-08-06T01:12:13;8.63;;;5.20;;
15356;SDS011;7778;48.792;9.260;2023-08-06T01:15:11;10.63;;;5.40;;
15356;SDS011;7778;48.792;9.260;2023-08-06T01:18:00;6.63;;;4.50;;
15356;SDS011;7778;48.792;9.260;2023-08-06T01:20:47;7.68;;;4.95;;
15356;SDS011;7778;48.792;9.260;2023-08-06T01:23:33;9.15;;;5.43;;
15356;SDS011;7778;48.792;9.260;2023-08-06T01:26:21;7.15;;;5.40;;
15356;SDS011;7778;48.792;9.260;2023-08-06T01:29:15;7.50;;;4.78;;
15356;SDS011;7778;48.792;9.260;2023-08-06T01:32:07;8.45;;;4.90;;
15356;SDS011;7778;48.792;9.260;2023-08-06T01:34:55;7.10;;;5.10;;
15356;SDS011;7778;48.792;9.260;2023-08-06T01:37:44;8.57;;;6.03;;
15356;SDS011;7778;48.792;9.260;2023-08-06T01:40:30;9.20;;;5.43;;
15356;SDS011;7778;48.792;9.260;2023-08-06T01:43:16;8.00;;;5.55;;
15356;SDS011;7778;48.792;9.260;2023-08-06T01:46:02;7.45;;;5.10;;
15356;SDS011;7778;48.792;9.260;2023-08-06T01:48:47;11.43;;;5.50;;
15356;SDS011;7778;48.792;9.260;2023-08-06T01:51:33;10.13;;;5.38;;
15356;SDS011;7778;48.792;9.260;2023-08-06T01:54:20;8.82;;;4.95;;
15356;SDS011;7778;48.792;9.260;2023-08-06T01:57:06;6.05;;;4.47;;
15356;SDS011;7778;48.792;9.260;2023-08-06T01:59:52;6.43;;;4.15;;
15356;SDS011;7778;48.792;9.260;2023-08-06T02:02:37;8.30;;;4.57;;
15356;SDS011;7778;48.792;9.260;2023-08-06T02:05:24;5.45;;;3.92;;
15356;SDS011;7778;48.792;9.260;2023-08-06T02:08:09;5.70;;;3.80;;
15356;SDS011;7778;48.792;9.260;2023-08-06T02:10:56;6.15;;;4.10;;
15356;SDS011;7778;48.792;9.260;2023-08-06T02:13:42;6.95;;;4.32;;
15356;SDS011;7778;48.792;9.260;2023-08-06T02:16:28;5.05;;;3.50;;
15356;SDS011;7778;48.792;9.260;2023-08-06T02:19:13;4.50;;;3.50;;
15356;SDS011;7778;48.792;9.260;2023-08-06T02:21:59;5.57;;;3.83;;
15356;SDS011;7778;48.792;9.260;2023-08-06T02:24:46;4.43;;;3.40;;
15356;SDS011;7778;48.792;9.260;2023-08-06T02:27:35;2.95;;;2.65;;
15356;SDS011;7778;48.792;9.260;2023-08-06T02:30:22;3.50;;;2.70;;
15356;SDS011;7778;48.792;9.260;2023-08-06T02:33:07;4.05;;;2.53;;
15356;SDS011;7778;48.792;9.260;2023-08-06T02:35:58;3.08;;;2.40;;
15356;SDS011;7778;48.792;9.260;2023-08-06T02:38:45;5.00;;;2.30;;
15356;SDS011;7778;48.792;9.260;2023-08-06T02:41:30;3.88;;;2.50;;
15356;SDS011;7778;48.792;9.260;2023-08-06T02:44:17;2.45;;;2.00;;
15356;SDS011;7778;48.792;9.260;2023-08-06T02:47:05;5.25;;;2.10;;
15356;SDS011;7778;48.792;9.260;2023-08-06T02:49:50;3.67;;;2.05;;
15356;SDS011;7778;48.792;9.260;2023-08-06T02:52:36;3.03;;;2.10;;
15356;SDS011;7778;48.792;9.260;2023-08-06T02:55:22;3.17;;;2.10;;
15356;SDS011;7778;48.792;9.260;2023-08-06T02:58:07;2.45;;;2.05;;
15356;SDS011;7778;48.792;9.260;2023-08-06T03:01:02;2.70;;;2.05;;
15356;SDS011;7778;48.792;9.260;2023-08-06T03:07:48;2.00;;;1.75;;
15356;SDS011;7778;48.792;9.260;2023-08-06T03:10:34;4.07;;;2.50;;
15356;SDS011;7778;48.792;9.260;2023-08-06T03:13:20;3.28;;;2.38;;
15356;SDS011;7778;48.792;9.260;2023-08-06T03:16:07;2.17;;;1.95;;
15356;SDS011;7778;48.792;9.260;2023-08-06T03:18:53;3.55;;;2.40;;
15356;SDS011;7778;48.792;9.260;2023-08-06T03:21:38;4.60;;;2.20;;
15356;SDS011;7778;48.792;9.260;2023-08-06T03:24:24;3.35;;;2.20;;
15356;SDS011;7778;48.792;9.260;2023-08-06T03:27:09;3.53;;;2.30;;
15356;SDS011;7778;48.792;9.260;2023-08-06T03:29:54;3.95;;;2.25;;
15356;SDS011;7778;48.792;9.260;2023-08-06T03:32:41;5.28;;;2.53;;
15356;SDS011;7778;48.792;9.260;2023-08-06T03:35:27;3.90;;;2.28;;
15356;SDS011;7778;48.792;9.260;2023-08-06T03:38:12;4.13;;;2.10;;
15356;SDS011;7778;48.792;9.260;2023-08-06T03:40:58;2.35;;;1.95;;
15356;SDS011;7778;48.792;9.260;2023-08-06T03:43:44;3.00;;;1.95;;
15356;SDS011;7778;48.792;9.260;2023-08-06T03:46:31;4.60;;;2.05;;
15356;SDS011;7778;48.792;9.260;2023-08-06T03:49:18;2.65;;;1.63;;
15356;SDS011;7778;48.792;9.260;2023-08-06T03:52:04;6.78;;;1.85;;
15356;SDS011;7778;48.792;9.260;2023-08-06T03:54:51;2.70;;;1.70;;
15356;SDS011;7778;48.792;9.260;2023-08-06T03:57:37;4.47;;;1.65;;
15356;SDS011;7778;48.792;9.260;2023-08-06T04:00:22;3.75;;;2.08;;
15356;SDS011;7778;48.792;9.260;2023-08-06T04:03:08;4.20;;;2.10;;
15356;SDS011;7778;48.792;9.260;2023-08-06T04:05:55;3.90;;;1.90;;
15356;SDS011;7778;48.792;9.260;2023-08-06T04:08:40;5.43;;;2.28;;
15356;SDS011;7778;48.792;9.260;2023-08-06T04:11:26;2.50;;;1.90;;
15356;SDS011;7778;48.792;9.260;2023-08-06T04:14:11;3.13;;;1.98;;
15356;SDS011;7778;48.792;9.260;2023-08-06T04:16:57;3.05;;;2.03;;
15356;SDS011;7778;48.792;9.260;2023-08-06T04:19:43;3.17;;;1.90;;
15356;SDS011;7778;48.792;9.260;2023-08-06T04:22:30;3.75;;;2.08;;
15356;SDS011;7778;48.792;9.260;2023-08-06T04:25:15;2.90;;;1.95;;
15356;SDS011;7778;48.792;9.260;2023-08-06T04:28:04;3.55;;;1.60;;
15356;SDS011;7778;48.792;9.260;2023-08-06T04:30:50;2.83;;;1.90;;
15356;SDS011;7778;48.792;9.260;2023-08-06T04:33:37;2.78;;;2.05;;
15356;SDS011;7778;48.792;9.260;2023-08-06T04:36:23;4.93;;;1.70;;
15356;SDS011;7778;48.792;9.260;2023-08-06T04:39:10;3.35;;;2.05;;
15356;SDS011;7778;48.792;9.260;2023-08-06T04:41:55;3.28;;;1.75;;
15356;SDS011;7778;48.792;9.260;2023-08-06T04:44:41;4.15;;;2.10;;
15356;SDS011;7778;48.792;9.260;2023-08-06T04:47:27;3.25;;;1.70;;
15356;SDS011;7778;48.792;9.260;2023-08-06T04:50:13;2.13;;;1.80;;
15356;SDS011;7778;48.792;9.260;2023-08-06T04:52:58;2.33;;;2.00;;
15356;SDS011;7778;48.792;9.260;2023-08-06T04:55:45;3.38;;;1.52;;
15356;SDS011;7778;48.792;9.260;2023-08-06T04:58:31;2.33;;;1.98;;
15356;SDS011;7778;48.792;9.260;2023-08-06T05:01:17;3.28;;;2.00;;
15356;SDS011;7778;48.792;9.260;2023-08-06T05:04:03;2.42;;;1.90;;
15356;SDS011;7778;48.792;9.260;2023-08-06T05:06:49;4.30;;;1.98;;
15356;SDS011;7778;48.792;9.260;2023-08-06T05:09:34;2.10;;;1.63;;
15356;SDS011;7778;48.792;9.260;2023-08-06T05:12:21;3.10;;;1.80;;
15356;SDS011;7778;48.792;9.260;2023-08-06T05:15:07;3.80;;;1.58;;
15356;SDS011;7778;48.792;9.260;2023-08-06T05:17:53;6.05;;;1.92;;
15356;SDS011;7778;48.792;9.260;2023-08-06T05:20:40;2.85;;;2.05;;
15356;SDS011;7778;48.792;9.260;2023-08-06T05:23:26;2.47;;;1.50;;
15356;SDS011;7778;48.792;9.260;2023-08-06T05:26:12;3.75;;;1.48;;
15356;SDS011;7778;48.792;9.260;2023-08-06T05:29:00;2.40;;;1.50;;
15356;SDS011;7778;48.792;9.260;2023-08-06T05:31:45;3.38;;;1.52;;
15356;SDS011;7778;48.792;9.260;2023-08-06T05:34:31;2.28;;;1.52;;
15356;SDS011;7778;48.792;9.260;2023-08-06T05:37:17;1.50;;;1.13;;
15356;SDS011;7778;48.792;9.260;2023-08-06T05:40:02;1.20;;;1.10;;
15356;SDS011;7778;48.792;9.260;2023-08-06T05:42:48;1.83;;;1.27;;
15356;SDS011;7778;48.792;9.260;2023-08-06T05:45:35;5.18;;;1.15;;
15356;SDS011;7778;48.792;9.260;2023-08-06T05:48:21;2.63;;;1.10;;
15356;SDS011;7778;48.792;9.260;2023-08-06T05:51:08;3.30;;;0.90;;
15356;SDS011;7778;48.792;9.260;2023-08-06T05:53:56;1.98;;;1.08;;
15356;SDS011;7778;48.792;9.260;2023-08-06T05:56:42;3.45;;;0.93;;
15356;SDS011;7778;48.792;9.260;2023-08-06T05:59:27;1.95;;;1.00;;
15356;SDS011;7778;48.792;9.260;2023-08-06T06:02:14;1.23;;;0.90;;
15356;SDS011;7778;48.792;9.260;2023-08-06T06:05:21;0.75;;;0.75;;
15356;SDS011;7778;48.792;9.260;2023-08-06T06:08:06;1.35;;;0.80;;
15356;SDS011;7778;48.792;9.260;2023-08-06T06:10:52;3.50;;;0.95;;
15356;SDS011;7778;48.792;9.260;2023-08-06T06:13:38;1.40;;;0.77;;
15356;SDS011;7778;48.792;9.260;2023-08-06T06:16:24;3.03;;;0.85;;
15356;SDS011;7778;48.792;9.260;2023-08-06T06:19:10;0.57;;;0.57;;
15356;SDS011;7778;48.792;9.260;2023-08-06T06:21:56;0.75;;;0.70;;
15356;SDS011;7778;48.792;9.260;2023-08-06T06:24:42;0.85;;;0.40;;
15356;SDS011;7778;48.792;9.260;2023-08-06T06:27:28;2.53;;;1.02;;
15356;SDS011;7778;48.792;9.260;2023-08-06T06:30:13;3.40;;;0.90;;
15356;SDS011;7778;48.792;9.260;2023-08-06T06:32:59;0.47;;;0.38;;
15356;SDS011;7778;48.792;9.260;2023-08-06T06:35:46;1.35;;;0.55;;
15356;SDS011;7778;48.792;9.260;2023-08-06T06:38:31;2.60;;;0.65;;
15356;SDS011;7778;48.792;9.260;2023-08-06T06:41:17;1.38;;;0.38;;
15356;SDS011;7778;48.792;9.260;2023-08-06T06:44:02;3.25;;;0.70;;
15356;SDS011;7778;48.792;9.260;2023-08-06T06:46:48;0.47;;;0.38;;
15356;SDS011;7778;48.792;9.260;2023-08-06T06:49:34;1.90;;;0.40;;
15356;SDS011;7778;48.792;9.260;2023-08-06T06:52:21;1.08;;;0.60;;
15356;SDS011;7778;48.792;9.260;2023-08-06T06:55:07;1.30;;;0.70;;
15356;SDS011;7778;48.792;9.260;2023-08-06T06:57:53;0.65;;;0.65;;
15356;SDS011;7778;48.792;9.260;2023-08-06T07:00:38;2.50;;;0.63;;
15356;SDS011;7778;48.792;9.260;2023-08-06T07:03:24;1.33;;;0.63;;
15356;SDS011;7778;48.792;9.260;2023-08-06T07:06:09;1.30;;;0.60;;
15356;SDS011;7778;48.792;9.260;2023-08-06T07:08:57;1.55;;;0.70;;
15356;SDS011;7778;48.792;9.260;2023-08-06T07:11:43;1.98;;;0.68;;
15356;SDS011;7778;48.792;9.260;2023-08-06T07:14:29;2.05;;;0.60;;
15356;SDS011;7778;48.792;9.260;2023-08-06T07:17:17;2.05;;;0.55;;
15356;SDS011;7778;48.792;9.260;2023-08-06T07:20:03;2.67;;;0.70;;
15356;SDS011;7778;48.792;9.260;2023-08-06T07:22:50;1.17;;;0.60;;
15356;SDS011;7778;48.792;9.260;2023-08-06T07:25:37;1.27;;;0.50;;
15356;SDS011;7778;48.792;9.260;2023-08-06T07:28:23;0.50;;;0.50;;
15356;SDS011;7778;48.792;9.260;2023-08-06T07:31:08;0.30;;;0.30;;
15356;SDS011;7778;48.792;9.260;2023-08-06T07:33:54;1.40;;;0.40;;
15356;SDS011;7778;48.792;9.260;2023-08-06T07:36:39;1.33;;;0.45;;
15356;SDS011;7778;48.792;9.260;2023-08-06T07:39:28;0.35;;;0.30;;
15356;SDS011;7778;48.792;9.260;2023-08-06T07:42:15;2.28;;;0.50;;
15356;SDS011;7778;48.792;9.260;2023-08-06T07:45:05;1.20;;;0.35;;
15356;SDS011;7778;48.792;9.260;2023-08-06T07:47:52;0.63;;;0.50;;
15356;SDS011;7778;48.792;9.260;2023-08-06T07:50:38;1.15;;;0.30;;
15356;SDS011;7778;48.792;9.260;2023-08-06T07:53:24;0.43;;;0.35;;
15356;SDS011;7778;48.792;9.260;2023-08-06T07:56:13;2.90;;;0.30;;
15356;SDS011;7778;48.792;9.260;2023-08-06T07:58:59;0.65;;;0.35;;
15356;SDS011;7778;48.792;9.260;2023-08-06T08:01:45;0.20;;;0.20;;
15356;SDS011;7778;48.792;9.260;2023-08-06T08:04:30;0.28;;;0.25;;
15356;SDS011;7778;48.792;9.260;2023-08-06T08:07:16;0.30;;;0.30;;
15356;SDS011;7778;48.792;9.260;2023-08-06T08:10:02;0.90;;;0.52;;
15356;SDS011;7778;48.792;9.260;2023-08-06T08:12:49;0.22;;;0.22;;
15356;SDS011;7778;48.792;9.260;2023-08-06T08:15:38;1.27;;;0.38;;
15356;SDS011;7778;48.792;9.260;2023-08-06T08:18:24;0.20;;;0.20;;
15356;SDS011;7778;48.792;9.260;2023-08-06T08:21:10;0.60;;;0.15;;
15356;SDS011;7778;48.792;9.260;2023-08-06T08:23:55;1.55;;;0.20;;
15356;SDS011;7778;48.792;9.260;2023-08-06T08:26:43;1.75;;;0.30;;
15356;SDS011;7778;48.792;9.260;2023-08-06T08:29:29;1.45;;;0.30;;
15356;SDS011;7778;48.792;9.260;2023-08-06T08:32:16;2.15;;;0.20;;
15356;SDS011;7778;48.792;9.260;2023-08-06T08:35:02;0.43;;;0.10;;
15356;SDS011;7778;48.792;9.260;2023-08-06T08:37:48;0.20;;;0.20;;
15356;SDS011;7778;48.792;9.260;2023-08-06T08:40:34;0.10;;;0.10;;
15356;SDS011;7778;48.792;9.260;2023-08-06T08:43:27;0.13;;;0.13;;
15356;SDS011;7778;48.792;9.260;2023-08-06T08:46:14;0.00;;;0.00;;
15356;SDS011;7778;48.792;9.260;2023-08-06T08:49:01;0.10;;;0.10;;
15356;SDS011;7778;48.792;9.260;2023-08-06T08:51:47;0.32;;;0.20;;
15356;SDS011;7778;48.792;9.260;2023-08-06T08:54:35;0.10;;;0.10;;
15356;SDS011;7778;48.792;9.260;2023-08-06T08:57:23;0.10;;;0.10;;
15356;SDS011;7778;48.792;9.260;2023-08-06T09:00:09;0.00;;;0.00;;
15356;SDS011;7778;48.792;9.260;2023-08-06T09:02:55;0.10;;;0.10;;
15356;SDS011;7778;48.792;9.260;2023-08-06T09:05:45;0.70;;;0.20;;
15356;SDS011;7778;48.792;9.260;2023-08-06T09:08:39;0.00;;;0.00;;
15356;SDS011;7778;48.792;9.260;2023-08-06T09:11:34;0.00;;;0.00;;
15356;SDS011;7778;48.792;9.260;2023-08-06T09:14:27;0.10;;;0.10;;
15356;SDS011;7778;48.792;9.260;2023-08-06T09:17:13;0.20;;;0.10;;
15356;SDS011;7778;48.792;9.260;2023-08-06T09:20:10;0.52;;;0.00;;
15356;SDS011;7778;48.792;9.260;2023-08-06T09:22:59;0.08;;;0.08;;
15356;SDS011;7778;48.792;9.260;2023-08-06T09:25:53;0.00;;;0.00;;
15356;SDS011;7778;48.792;9.260;2023-08-06T09:28:38;0.40;;;0.20;;
15356;SDS011;7778;48.792;9.260;2023-08-06T09:31:32;0.10;;;0.10;;
15356;SDS011;7778;48.792;9.260;2023-08-06T09:34:19;0.20;;;0.10;;
15356;SDS011;7778;48.792;9.260;2023-08-06T09:37:07;0.10;;;0.10;;
15356;SDS011;7778;48.792;9.260;2023-08-06T09:39:55;0.10;;;0.10;;
15356;SDS011;7778;48.792;9.260;2023-08-06T09:42:42;0.10;;;0.10;;
15356;SDS011;7778;48.792;9.260;2023-08-06T09:45:30;0.10;;;0.10;;
15356;SDS011;7778;48.792;9.260;2023-08-06T09:48:17;0.10;;;0.10;;
15356;SDS011;7778;48.792;9.260;2023-08-06T09:51:03;0.20;;;0.20;;
15356;SDS011;7778;48.792;9.260;2023-08-06T09:53:49;0.15;;;0.00;;
15356;SDS011;7778;48.792;9.260;2023-08-06T09:56:37;0.00;;;0.00;;
15356;SDS011;7778;48.792;9.260;2023-08-06T09:59:23;0.10;;;0.10;;
15356;SDS011;7778;48.792;9.260;2023-08-06T10:02:12;0.00;;;0.00;;
15356;SDS011;7778;48.792;9.260;2023-08-06T10:04:58;0.15;;;0.10;;
15356;SDS011;7778;48.792;9.260;2023-08-06T10:07:44;0.00;;;0.00;;
15356;SDS011;7778;48.792;9.260;2023-08-06T10:10:30;0.00;;;0.00;;
15356;SDS011;7778;48.792;9.260;2023-08-06T10:13:18;0.65;;;0.10;;
15356;SDS011;7778;48.792;9.260;2023-08-06T10:16:06;0.52;;;0.10;;
15356;SDS011;7778;48.792;9.260;2023-08-06T10:18:52;0.10;;;0.10;;
15356;SDS011;7778;48.792;9.260;2023-08-06T10:21:39;0.22;;;0.22;;
15356;SDS011;7778;48.792;9.260;2023-08-06T10:24:26;0.00;;;0.00;;
15356;SDS011;7778;48.792;9.260;2023-08-06T10:27:11;0.10;;;0.10;;
15356;SDS011;7778;48.792;9.260;2023-08-06T10:33:13;0.35;;;0.13;;
15356;SDS011;7778;48.792;9.260;2023-08-06T10:36:00;0.00;;;0.00;;
15356;SDS011;7778;48.792;9.260;2023-08-06T10:38:51;0.28;;;0.13;;
15356;SDS011;7778;48.792;9.260;2023-08-06T10:41:37;0.00;;;0.00;;
15356;SDS011;7778;48.792;9.260;2023-08-06T10:44:28;0.25;;;0.10;;
15356;SDS011;7778;48.792;9.260;2023-08-06T10:47:28;0.68;;;0.30;;
15356;SDS011;7778;48.792;9.260;2023-08-06T10:50:14;2.15;;;0.17;;
15356;SDS011;7778;48.792;9.260;2023-08-06T10:53:03;0.75;;;0.13;;
15356;SDS011;7778;48.792;9.260;2023-08-06T10:55:50;0.25;;;0.13;;
15356;SDS011;7778;48.792;9.260;2023-08-06T10:58:36;0.00;;;0.00;;
15356;SDS011;7778;48.792;9.260;2023-08-06T11:01:21;0.60;;;0.00;;
15356;SDS011;7778;48.792;9.260;2023-08-06T11:04:09;0.70;;;0.30;;
15356;SDS011;7778;48.792;9.260;2023-08-06T11:06:59;11.07;;;1.85;;
15356;SDS011;7778;48.792;9.260;2023-08-06T11:09:49;3.90;;;0.82;;
15356;SDS011;7778;48.792;9.260;2023-08-06T11:12:37;1.65;;;0.32;;
15356;SDS011;7778;48.792;9.260;2023-08-06T11:15:23;0.60;;;0.52;;
15356;SDS011;7778;48.792;9.260;2023-08-06T11:18:09;5.82;;;0.93;;
15356;SDS011;7778;48.792;9.260;2023-08-06T11:20:57;1.50;;;0.63;;
15356;SDS011;7778;48.792;9.260;2023-08-06T11:23:44;1.38;;;0.55;;
15356;SDS011;7778;48.792;9.260;2023-08-06T11:26:29;2.70;;;0.50;;
15356;SDS011;7778;48.792;9.260;2023-08-06T11:29:16;0.32;;;0.32;;
15356;SDS011;7778;48.792;9.260;2023-08-06T11:32:03;0.20;;;0.20;;
15356;SDS011;7778;48.792;9.260;2023-08-06T11:34:49;0.98;;;0.45;;
15356;SDS011;7778;48.792;9.260;2023-08-06T11:37:36;1.10;;;0.22;;
15356;SDS011;7778;48.792;9.260;2023-08-06T11:40:23;2.47;;;0.50;;
15356;SDS011;7778;48.792;9.260;2023-08-06T11:43:09;0.45;;;0.45;;
15356;SDS011;7778;48.792;9.260;2023-08-06T11:45:55;0.85;;;0.70;;
15356;SDS011;7778;48.792;9.260;2023-08-06T11:48:50;0.70;;;0.50;;
15356;SDS011;7778;48.792;9.260;2023-08-06T11:51:37;1.73;;;0.68;;
15356;SDS011;7778;48.792;9.260;2023-08-06T11:54:31;1.42;;;0.70;;
15356;SDS011;7778;48.792;9.260;2023-08-06T11:57:17;0.65;;;0.65;;
15356;SDS011;7778;48.792;9.260;2023-08-06T12:00:03;0.73;;;0.60;;
15356;SDS011;7778;48.792;9.260;2023-08-06T12:02:52;1.10;;;0.85;;
15356;SDS011;7778;48.792;9.260;2023-08-06T12:05:38;3.38;;;1.23;;
15356;SDS011;7778;48.792;9.260;2023-08-06T12:08:26;1.38;;;0.95;;
15356;SDS011;7778;48.792;9.260;2023-08-06T12:11:16;2.00;;;1.00;;
15356;SDS011;7778;48.792;9.260;2023-08-06T12:14:02;1.52;;;0.93;;
15356;SDS011;7778;48.792;9.260;2023-08-06T12:16:47;3.50;;;1.02;;
15356;SDS011;7778;48.792;9.260;2023-08-06T12:19:33;1.27;;;1.00;;
15356;SDS011;7778;48.792;9.260;2023-08-06T12:22:19;2.10;;;1.00;;
15356;SDS011;7778;48.792;9.260;2023-08-06T12:25:06;0.98;;;0.85;;
15356;SDS011;7778;48.792;9.260;2023-08-06T12:27:56;1.48;;;0.82;;
15356;SDS011;7778;48.792;9.260;2023-08-06T12:30:42;2.50;;;0.70;;
15356;SDS011;7778;48.792;9.260;2023-08-06T12:33:28;2.20;;;1.20;;
15356;SDS011;7778;48.792;9.260;2023-08-06T12:36:14;3.30;;;1.23;;
15356;SDS011;7778;48.792;9.260;2023-08-06T12:38:59;1.98;;;1.35;;
15356;SDS011;7778;48.792;9.260;2023-08-06T12:41:45;1.50;;;1.20;;
15356;SDS011;7778;48.792;9.260;2023-08-06T12:44:32;1.15;;;0.93;;
15356;SDS011;7778;48.792;9.260;2023-08-06T12:47:18;2.25;;;1.23;;
15356;SDS011;7778;48.792;9.260;2023-08-06T12:50:05;1.92;;;1.45;;
15356;SDS011;7778;48.792;9.260;2023-08-06T12:52:52;4.07;;;1.20;;
15356;SDS011;7778;48.792;9.260;2023-08-06T12:55:37;3.33;;;1.02;;
15356;SDS011;7778;48.792;9.260;2023-08-06T12:58:24;1.58;;;0.95;;
15356;SDS011;7778;48.792;9.260;2023-08-06T13:01:11;2.10;;;0.88;;
15356;SDS011;7778;48.792;9.260;2023-08-06T13:03:57;0.70;;;0.70;;
15356;SDS011;7778;48.792;9.260;2023-08-06T13:06:44;0.68;;;0.50;;
15356;SDS011;7778;48.792;9.260;2023-08-06T13:09:30;0.57;;;0.57;;
15356;SDS011;7778;48.792;9.260;2023-08-06T13:12:16;0.52;;;0.52;;
15356;SDS011;7778;48.792;9.260;2023-08-06T13:15:04;1.65;;;0.43;;
15356;SDS011;7778;48.792;9.260;2023-08-06T13:17:52;1.02;;;0.70;;
15356;SDS011;7778;48.792;9.260;2023-08-06T13:20:41;0.95;;;0.88;;
15356;SDS011;7778;48.792;9.260;2023-08-06T13:23:27;0.77;;;0.77;;
15356;SDS011;7778;48.792;9.260;2023-08-06T13:26:12;0.68;;;0.65;;
15356;SDS011;7778;48.792;9.260;2023-08-06T13:28:59;0.88;;;0.65;;
15356;SDS011;7778;48.792;9.260;2023-08-06T13:31:46;2.05;;;0.93;;
15356;SDS011;7778;48.792;9.260;2023-08-06T13:34:33;1.33;;;0.73;;
15356;SDS011;7778;48.792;9.260;2023-08-06T13:37:19;1.33;;;0.75;;
15356;SDS011;7778;48.792;9.260;2023-08-06T13:40:05;0.43;;;0.43;;
15356;SDS011;7778;48.792;9.260;2023-08-06T13:42:52;0.93;;;0.60;;
15356;SDS011;7778;48.792;9.260;2023-08-06T13:45:37;2.47;;;0.70;;
15356;SDS011;7778;48.792;9.260;2023-08-06T13:48:23;0.43;;;0.40;;
15356;SDS011;7778;48.792;9.260;2023-08-06T13:51:11;1.08;;;0.47;;
15356;SDS011;7778;48.792;9.260;2023-08-06T13:53:57;0.57;;;0.47;;
15356;SDS011;7778;48.792;9.260;2023-08-06T13:56:43;1.10;;;0.32;;
15356;SDS011;7778;48.792;9.260;2023-08-06T13:59:29;0.40;;;0.40;;
15356;SDS011;7778;48.792;9.260;2023-08-06T14:02:14;0.50;;;0.50;;
15356;SDS011;7778;48.792;9.260;2023-08-06T14:05:00;0.35;;;0.35;;
15356;SDS011;7778;48.792;9.260;2023-08-06T14:07:47;0.80;;;0.57;;
15356;SDS011;7778;48.792;9.260;2023-08-06T14:10:33;0.52;;;0.40;;
15356;SDS011;7778;48.792;9.260;2023-08-06T14:13:19;0.30;;;0.30;;
15356;SDS011;7778;48.792;9.260;2023-08-06T14:16:05;0.98;;;0.60;;
15356;SDS011;7778;48.792;9.260;2023-08-06T14:19:02;6.30;;;0.82;;
15356;SDS011;7778;48.792;9.260;2023-08-06T14:21:54;0.63;;;0.35;;
15356;SDS011;7778;48.792;9.260;2023-08-06T14:24:41;0.30;;;0.30;;
15356;SDS011;7778;48.792;9.260;2023-08-06T14:27:27;1.52;;;0.77;;
15356;SDS011;7778;48.792;9.260;2023-08-06T14:30:14;2.42;;;1.23;;
15356;SDS011;7778;48.792;9.260;2023-08-06T14:32:59;1.67;;;0.40;;
15356;SDS011;7778;48.792;9.260;2023-08-06T14:35:45;1.50;;;0.40;;
15356;SDS011;7778;48.792;9.260;2023-08-06T14:38:31;1.92;;;0.68;;
15356;SDS011;7778;48.792;9.260;2023-08-06T14:41:18;0.45;;;0.45;;
15356;SDS011;7778;48.792;9.260;2023-08-06T14:44:04;2.67;;;0.70;;
15356;SDS011;7778;48.792;9.260;2023-08-06T14:46:50;0.80;;;0.57;;
15356;SDS011;7778;48.792;9.260;2023-08-06T14:49:37;0.55;;;0.55;;
15356;SDS011;7778;48.792;9.260;2023-08-06T14:52:23;0.40;;;0.40;;
15356;SDS011;7778;48.792;9.260;2023-08-06T14:55:08;1.17;;;0.70;;
15356;SDS011;7778;48.792;9.260;2023-08-06T14:57:56;2.20;;;0.52;;
15356;SDS011;7778;48.792;9.260;2023-08-06T15:00:42;0.25;;;0.25;;
15356;SDS011;7778;48.792;9.260;2023-08-06T15:03:27;0.50;;;0.50;;
15356;SDS011;7778;48.792;9.260;2023-08-06T15:06:14;0.43;;;0.20;;
15356;SDS011;7778;48.792;9.260;2023-08-06T15:09:00;0.57;;;0.35;;
15356;SDS011;7778;48.792;9.260;2023-08-06T15:11:45;0.35;;;0.32;;
15356;SDS011;7778;48.792;9.260;2023-08-06T15:14:33;0.80;;;0.40;;
15356;SDS011;7778;48.792;9.260;2023-08-06T15:17:19;0.68;;;0.68;;
15356;SDS011;7778;48.792;9.260;2023-08-06T15:20:05;0.80;;;0.57;;
15356;SDS011;7778;48.792;9.260;2023-08-06T15:22:52;0.75;;;0.60;;
15356;SDS011;7778;48.792;9.260;2023-08-06T15:25:38;0.38;;;0.38;;
15356;SDS011;7778;48.792;9.260;2023-08-06T15:28:24;0.35;;;0.35;;
15356;SDS011;7778;48.792;9.260;2023-08-06T15:31:11;1.20;;;0.65;;
15356;SDS011;7778;48.792;9.260;2023-08-06T15:33:56;0.40;;;0.40;;
15356;SDS011;7778;48.792;9.260;2023-08-06T15:36:42;1.67;;;0.50;;
15356;SDS011;7778;48.792;9.260;2023-08-06T15:39:27;0.82;;;0.60;;
15356;SDS011;7778;48.792;9.260;2023-08-06T15:42:13;0.82;;;0.70;;
15356;SDS011;7778;48.792;9.260;2023-08-06T15:44:59;0.55;;;0.45;;
15356;SDS011;7778;48.792;9.260;2023-08-06T15:47:48;1.75;;;0.40;;
15356;SDS011;7778;48.792;9.260;2023-08-06T15:50:33;0.30;;;0.30;;
15356;SDS011;7778;48.792;9.260;2023-08-06T15:53:21;2.28;;;0.55;;
15356;SDS011;7778;48.792;9.260;2023-08-06T15:56:07;0.68;;;0.40;;
15356;SDS011;7778;48.792;9.260;2023-08-06T15:58:53;2.20;;;0.40;;
15356;SDS011;7778;48.792;9.260;2023-08-06T16:01:39;0.75;;;0.65;;
15356;SDS011;7778;48.792;9.260;2023-08-06T16:04:26;0.90;;;0.50;;
15356;SDS011;7778;48.792;9.260;2023-08-06T16:07:12;3.00;;;0.65;;
15356;SDS011;7778;48.792;9.260;2023-08-06T16:09:58;0.98;;;0.52;;
15356;SDS011;7778;48.792;9.260;2023-08-06T16:12:44;2.10;;;0.60;;
15356;SDS011;7778;48.792;9.260;2023-08-06T16:15:30;0.77;;;0.65;;
15356;SDS011;7778;48.792;9.260;2023-08-06T16:18:16;0.82;;;0.50;;
15356;SDS011;7778;48.792;9.260;2023-08-06T16:21:03;1.05;;;0.73;;
15356;SDS011;7778;48.792;9.260;2023-08-06T16:23:48;1.10;;;0.35;;
15356;SDS011;7778;48.792;9.260;2023-08-06T16:26:34;0.50;;;0.35;;
15356;SDS011;7778;48.792;9.260;2023-08-06T16:29:21;3.40;;;0.73;;
15356;SDS011;7778;48.792;9.260;2023-08-06T16:32:06;2.28;;;0.77;;
15356;SDS011;7778;48.792;9.260;2023-08-06T16:34:52;0.63;;;0.63;;
15356;SDS011;7778;48.792;9.260;2023-08-06T16:37:39;1.70;;;0.63;;
15356;SDS011;7778;48.792;9.260;2023-08-06T16:40:25;1.80;;;0.45;;
15356;SDS011;7778;48.792;9.260;2023-08-06T16:43:10;1.67;;;0.60;;
15356;SDS011;7778;48.792;9.260;2023-08-06T16:45:56;1.08;;;0.45;;
15356;SDS011;7778;48.792;9.260;2023-08-06T16:48:42;0.38;;;0.38;;
15356;SDS011;7778;48.792;9.260;2023-08-06T16:51:27;0.57;;;0.57;;
15356;SDS011;7778;48.792;9.260;2023-08-06T16:54:14;1.20;;;0.82;;
15356;SDS011;7778;48.792;9.260;2023-08-06T16:57:00;0.70;;;0.70;;
15356;SDS011;7778;48.792;9.260;2023-08-06T16:59:46;4.03;;;0.90;;
15356;SDS011;7778;48.792;9.260;2023-08-06T17:02:31;1.55;;;0.73;;
15356;SDS011;7778;48.792;9.260;2023-08-06T17:05:17;0.90;;;0.70;;
15356;SDS011;7778;48.792;9.260;2023-08-06T17:08:03;1.75;;;0.98;;